createdAt,value
2022-09-26T00:00:21.922Z,99093.29
2022-09-26T00:05:45.178Z,99084.89
2022-09-26T00:10:58.342Z,99080.31
2022-09-26T00:16:01.733Z,99075.95
2022-09-26T00:21:06.159Z,99063.61
2022-09-26T00:26:11.575Z,99060.78
2022-09-26T00:31:18.659Z,99056.69
2022-09-26T00:36:29.668Z,99057.86
2022-09-26T00:41:40.049Z,99050.85
2022-09-26T00:46:48.597Z,99045.38
2022-09-26T00:52:18.032Z,99050.46
2022-09-26T00:57:32.442Z,99047.52
2022-09-26T01:02:35.589Z,99049.30
2022-09-26T01:07:38.596Z,99052.08
2022-09-26T01:12:44.195Z,99049.85
2022-09-26T01:17:47.837Z,99051.85
2022-09-26T01:23:34.260Z,99046.69
2022-09-26T01:28:39.797Z,99038.25
2022-09-26T01:33:52.172Z,99043.77
2022-09-26T01:39:15.950Z,99032.80
2022-09-26T01:45:00.945Z,99031.73
2022-09-26T01:51:15.998Z,99027.33
2022-09-26T01:56:27.131Z,99025.51
2022-09-26T02:01:33.423Z,99018.45
2022-09-26T02:06:52.219Z,99007.70
2022-09-26T02:12:00.033Z,99007.95
2022-09-26T02:17:15.063Z,99007.55
2022-09-26T02:22:19.118Z,98996.77
2022-09-26T02:27:23.150Z,98995.95
2022-09-26T02:32:30.203Z,98993.06
2022-09-26T02:37:33.415Z,98992.32
2022-09-26T02:42:54.563Z,98990.83
2022-09-26T02:48:13.984Z,98982.85
2022-09-26T02:53:38.084Z,98982.39
2022-09-26T02:58:52.513Z,98982.05
2022-09-26T03:04:07.910Z,98985.52
2022-09-26T03:09:12.886Z,98981.33
2022-09-26T03:14:18.960Z,98972.46
2022-09-26T03:20:00.785Z,98965.05
2022-09-26T03:25:06.318Z,98957.85
2022-09-26T03:30:11.047Z,98954.08
2022-09-26T03:35:15.833Z,98945.98
2022-09-26T03:40:18.572Z,98948.17
2022-09-26T03:45:21.463Z,98942.73
2022-09-26T03:50:25.631Z,98935.42
2022-09-26T03:55:28.480Z,98935.48
2022-09-26T04:00:31.502Z,98934.02
2022-09-26T04:05:36.685Z,98929.34
2022-09-26T04:10:39.018Z,98928.89
2022-09-26T04:15:41.940Z,98919.89
2022-09-26T04:20:44.746Z,98919.49
2022-09-26T04:25:48.089Z,98920.48
2022-09-26T04:30:50.199Z,98913.58
2022-09-26T04:35:52.583Z,98909.65
2022-09-26T04:40:55.325Z,98911.59
2022-09-26T04:45:58.128Z,98912.88
2022-09-26T04:51:05.330Z,98910.84
2022-09-26T04:56:09.833Z,98911.11
2022-09-26T05:01:14.628Z,98910.56
2022-09-26T05:06:18.185Z,98910.25
2022-09-26T05:11:20.979Z,98906.20
2022-09-26T05:16:26.443Z,98903.36
2022-09-26T05:21:28.750Z,98902.44
2022-09-26T05:26:41.727Z,98898.08
2022-09-26T05:31:44.636Z,98898.99
2022-09-26T05:36:47.388Z,98891.20
2022-09-26T05:41:53.138Z,98889.81
2022-09-26T05:46:56.475Z,98885.26
2022-09-26T05:51:59.175Z,98888.02
2022-09-26T05:57:01.486Z,98886.64
2022-09-26T06:02:06.611Z,98885.42
2022-09-26T06:07:10.360Z,98884.56
2022-09-26T06:12:13.359Z,98881.52
2022-09-26T06:17:16.848Z,98884.05
2022-09-26T06:22:19.382Z,98888.23
2022-09-26T06:27:24.921Z,98886.73
2022-09-26T06:32:29.391Z,98891.54
2022-09-26T06:37:32.492Z,98897.10
2022-09-26T06:42:37.851Z,98892.27
2022-09-26T06:47:40.143Z,98889.38
2022-09-26T06:52:44.307Z,98890.92
2022-09-26T06:57:47.880Z,98888.77
2022-09-26T07:02:55.374Z,98889.67
2022-09-26T07:07:58.355Z,98884.36
2022-09-26T07:13:04.600Z,98884.09
2022-09-26T07:18:07.669Z,98889.31
2022-09-26T07:23:11.007Z,98889.80
2022-09-26T07:28:14.058Z,98892.67
2022-09-26T07:33:17.470Z,98886.50
2022-09-26T07:38:19.918Z,98884.40
2022-09-26T07:43:42.518Z,98879.45
2022-09-26T07:49:07.317Z,98877.63
2022-09-26T07:54:13.131Z,98875.83
2022-09-26T07:59:16.927Z,98874.10
2022-09-26T08:04:19.109Z,98869.05
2022-09-26T08:09:21.834Z,98866.54
2022-09-26T08:14:25.208Z,98868.26
2022-09-26T08:19:28.214Z,98866.70
2022-09-26T08:24:31.000Z,98862.95
2022-09-26T08:29:35.739Z,98856.98
2022-09-26T08:34:39.234Z,98851.67
2022-09-26T08:39:42.814Z,98847.18
2022-09-26T08:45:28.941Z,98841.89
2022-09-26T08:51:06.286Z,98839.09
2022-09-26T08:56:20.245Z,98831.54
2022-09-26T09:01:29.703Z,98830.58
2022-09-26T09:06:34.705Z,98826.59
2022-09-26T09:11:51.319Z,98822.44
2022-09-26T09:17:06.684Z,98817.63
2022-09-26T09:22:45.007Z,98819.72
2022-09-26T09:28:15.821Z,98818.82
2022-09-26T09:33:29.502Z,98814.17
2022-09-26T09:38:34.897Z,98816.59
2022-09-26T09:43:49.100Z,98816.38
2022-09-26T09:49:10.017Z,98819.81
2022-09-26T09:54:16.011Z,98821.23
2022-09-26T09:59:36.126Z,98818.36
2022-09-26T10:05:02.338Z,98814.05
2022-09-26T10:10:12.016Z,98818.37
2022-09-26T10:15:26.554Z,98817.36
2022-09-26T10:20:54.033Z,98821.95
2022-09-26T10:26:01.971Z,98823.19
2022-09-26T10:31:11.215Z,98822.70
2022-09-26T10:36:31.998Z,98822.67
2022-09-26T10:41:41.006Z,98815.61
2022-09-26T10:46:47.424Z,98808.23
2022-09-26T10:52:01.455Z,98804.73
2022-09-26T10:57:09.727Z,98800.36
2022-09-26T11:02:21.504Z,98799.49
2022-09-26T11:07:32.274Z,98800.94
2022-09-26T11:12:41.496Z,98801.27
2022-09-26T11:17:48.977Z,98803.73
2022-09-26T11:23:03.756Z,98798.77
2022-09-26T11:28:16.176Z,98799.56
2022-09-26T11:33:19.304Z,98791.45
2022-09-26T11:38:57.022Z,98789.95
2022-09-26T11:44:20.785Z,98791.70
2022-09-26T11:49:34.874Z,98787.36
2022-09-26T11:54:42.036Z,98778.19
2022-09-26T12:00:03.077Z,98768.77
2022-09-26T12:05:27.515Z,98761.55
2022-09-26T12:10:49.029Z,98755.70
2022-09-26T12:16:02.982Z,98755.27
2022-09-26T12:21:21.917Z,98751.75
2022-09-26T12:26:55.252Z,98748.36
2022-09-26T12:32:14.710Z,98739.05
2022-09-26T12:37:43.359Z,98740.05
2022-09-26T12:42:55.454Z,98743.69
2022-09-26T12:48:17.564Z,98739.13
2022-09-26T12:53:19.711Z,98736.12
2022-09-26T12:58:42.245Z,98728.59
2022-09-26T13:03:53.005Z,98725.98
2022-09-26T13:09:07.536Z,98721.11
2022-09-26T13:14:30.769Z,98718.91
2022-09-26T13:19:38.098Z,98716.24
2022-09-26T13:24:59.830Z,98717.30
2022-09-26T13:30:17.179Z,98711.35
2022-09-26T13:35:28.057Z,98705.45
2022-09-26T13:40:51.067Z,98708.33
2022-09-26T13:46:00.689Z,98707.16
2022-09-26T13:51:18.618Z,98706.78
2022-09-26T13:56:43.690Z,98706.01
2022-09-26T14:02:19.429Z,98703.46
2022-09-26T14:08:02.507Z,98706.13
2022-09-26T14:13:39.359Z,98701.61
2022-09-26T14:19:06.910Z,98689.36
2022-09-26T14:24:21.273Z,98679.27
2022-09-26T14:29:49.168Z,98675.69
2022-09-26T14:34:54.907Z,98671.13
2022-09-26T14:40:11.271Z,98666.91
2022-09-26T14:45:17.573Z,98678.58
2022-09-26T14:50:35.610Z,98690.95
2022-09-26T14:55:54.835Z,98696.25
2022-09-26T15:01:05.158Z,98695.38
2022-09-26T15:06:13.484Z,98705.94
2022-09-26T15:11:47.946Z,98713.80
2022-09-26T15:16:55.528Z,98715.06
2022-09-26T15:22:07.899Z,98716.86
2022-09-26T15:27:30.670Z,98713.42
2022-09-26T15:32:33.487Z,98709.18
2022-09-26T15:37:35.984Z,98705.70
2022-09-26T15:42:56.879Z,98698.16
2022-09-26T15:48:02.300Z,98695.46
2022-09-26T15:53:07.924Z,98694.02
2022-09-26T15:58:16.951Z,98696.97
2022-09-26T16:03:36.570Z,98696.80
2022-09-26T16:08:41.941Z,98697.70
2022-09-26T16:13:50.358Z,98699.21
2022-09-26T16:18:56.630Z,98694.92
2022-09-26T16:24:01.718Z,98695.22
2022-09-26T16:29:05.636Z,98689.88
2022-09-26T16:34:25.820Z,98689.71
2022-09-26T16:39:30.719Z,98678.23
2022-09-26T16:44:41.604Z,98681.64
2022-09-26T16:49:48.188Z,98680.94
2022-09-26T16:54:51.777Z,98683.83
2022-09-26T17:00:17.950Z,98691.17
2022-09-26T17:05:24.717Z,98690.30
2022-09-26T17:10:34.001Z,98687.57
2022-09-26T17:15:37.656Z,98689.09
2022-09-26T17:20:47.901Z,98686.26
2022-09-26T17:25:56.833Z,98686.36
2022-09-26T17:31:07.601Z,98685.98
2022-09-26T17:36:32.035Z,98692.75
2022-09-26T17:41:37.687Z,98693.36
2022-09-26T17:46:42.292Z,98688.76
2022-09-26T17:51:45.935Z,98694.38
2022-09-26T17:56:51.741Z,98690.64
2022-09-26T18:01:58.163Z,98692.00
2022-09-26T18:07:04.493Z,98694.95
2022-09-26T18:12:13.556Z,98694.48
2022-09-26T18:17:18.738Z,98692.86
2022-09-26T18:22:27.730Z,98693.27
2022-09-26T18:27:31.275Z,98692.56
2022-09-26T18:32:38.899Z,98686.92
2022-09-26T18:37:42.592Z,98682.65
2022-09-26T18:42:45.121Z,98680.61
2022-09-26T18:47:47.413Z,98678.03
2022-09-26T18:52:50.326Z,98671.16
2022-09-26T18:58:11.813Z,98670.75
2022-09-26T19:03:15.509Z,98670.73
2022-09-26T19:08:35.080Z,98681.40
2022-09-26T19:13:37.157Z,98688.00
2022-09-26T19:18:45.896Z,98686.73
2022-09-26T19:23:49.591Z,98687.09
2022-09-26T19:28:52.658Z,98688.73
2022-09-26T19:33:58.027Z,98681.23
2022-09-26T19:39:00.542Z,98675.97
2022-09-26T19:44:03.185Z,98678.73
2022-09-26T19:49:06.740Z,98690.77
2022-09-26T19:54:19.332Z,98691.67
2022-09-26T19:59:26.647Z,98686.66
2022-09-26T20:04:30.058Z,98682.46
2022-09-26T20:09:34.719Z,98681.14
2022-09-26T20:14:36.832Z,98677.79
2022-09-26T20:19:44.917Z,98682.90
2022-09-26T20:24:49.041Z,98682.25
2022-09-26T20:30:10.591Z,98681.15
2022-09-26T20:35:15.841Z,98675.38
2022-09-26T20:40:22.498Z,98671.98
2022-09-26T20:45:40.954Z,98669.66
2022-09-26T20:50:44.362Z,98664.64
2022-09-26T20:55:48.629Z,98664.35
2022-09-26T21:00:54.336Z,98662.17
2022-09-26T21:05:56.620Z,98651.66
2022-09-26T21:10:59.942Z,98650.25
2022-09-26T21:16:03.960Z,98645.69
2022-09-26T21:21:09.540Z,98643.02
2022-09-26T21:26:20.481Z,98648.69
2022-09-26T21:31:37.241Z,98647.07
2022-09-26T21:36:41.613Z,98646.11
2022-09-26T21:41:50.927Z,98644.38
2022-09-26T21:46:53.982Z,98645.13
2022-09-26T21:52:07.564Z,98645.79
2022-09-26T21:57:16.003Z,98637.71
2022-09-26T22:02:20.920Z,98631.34
2022-09-26T22:07:25.014Z,98626.55
2022-09-26T22:12:28.441Z,98628.34
2022-09-26T22:17:35.531Z,98627.98
2022-09-26T22:22:38.338Z,98629.40
2022-09-26T22:27:41.732Z,98621.73
2022-09-26T22:32:44.748Z,98618.03
2022-09-26T22:37:48.900Z,98618.36
2022-09-26T22:42:52.129Z,98613.66
2022-09-26T22:47:56.463Z,98601.36
2022-09-26T22:52:59.143Z,98600.79
2022-09-26T22:58:02.830Z,98597.05
2022-09-26T23:03:05.759Z,98594.17
2022-09-26T23:08:09.203Z,98584.48
2022-09-26T23:13:12.337Z,98583.31
2022-09-26T23:18:15.000Z,98576.70
2022-09-26T23:23:18.950Z,98574.58
2022-09-26T23:28:21.678Z,98573.58
2022-09-26T23:33:25.831Z,98567.27
2022-09-26T23:38:48.052Z,98561.14
2022-09-26T23:44:15.613Z,98560.01
2022-09-26T23:49:35.001Z,98556.67
2022-09-26T23:54:46.906Z,98560.92
